createdAt,value
2019-04-16T00:00:12.029Z,11.06
2019-04-16T00:00:42.420Z,11
2019-04-16T00:01:08.379Z,11
2019-04-16T00:01:38.442Z,11
2019-04-16T00:02:08.579Z,10.94
2019-04-16T00:02:38.514Z,10.94
2019-04-16T00:03:11.145Z,10.88
2019-04-16T00:03:40.192Z,10.88
2019-04-16T00:04:08.429Z,10.88
2019-04-16T00:04:38.366Z,10.88
2019-04-16T00:05:09.162Z,10.88
2019-04-16T00:05:38.583Z,10.88
2019-04-16T00:06:08.599Z,10.88
2019-04-16T00:06:38.521Z,10.81
2019-04-16T00:07:11.266Z,10.81
2019-04-16T00:07:40.824Z,10.81
2019-04-16T00:08:19.814Z,10.81
2019-04-16T00:08:38.695Z,10.81
2019-04-16T00:09:08.527Z,10.81
2019-04-16T00:09:38.843Z,10.81
2019-04-16T00:10:09.242Z,10.81
2019-04-16T00:10:38.576Z,10.81
2019-04-16T00:11:12.848Z,10.81
2019-04-16T00:11:38.509Z,10.81
2019-04-16T00:12:08.697Z,10.81
2019-04-16T00:12:38.787Z,10.81
2019-04-16T00:13:09.201Z,10.88
2019-04-16T00:13:39.337Z,10.88
2019-04-16T00:14:08.775Z,10.88
2019-04-16T00:14:41.563Z,10.88
2019-04-16T00:15:08.748Z,10.88
2019-04-16T00:15:40.813Z,10.88
2019-04-16T00:16:12.591Z,10.88
2019-04-16T00:16:41.312Z,10.88
2019-04-16T00:17:09.327Z,10.88
2019-04-16T00:17:38.706Z,10.88
2019-04-16T00:18:09.207Z,10.88
2019-04-16T00:18:38.761Z,10.94
2019-04-16T00:19:08.741Z,10.94
2019-04-16T00:19:39.201Z,10.94
2019-04-16T00:20:09.033Z,10.88
2019-04-16T00:20:38.963Z,10.94
2019-04-16T00:21:10.548Z,10.88
2019-04-16T00:21:41.132Z,10.88
2019-04-16T00:22:12.312Z,10.88
2019-04-16T00:22:39.229Z,10.88
2019-04-16T00:23:09.001Z,10.88
2019-04-16T00:23:39.048Z,10.94
2019-04-16T00:24:10.124Z,10.94
2019-04-16T00:24:39.288Z,10.94
2019-04-16T00:25:11.364Z,10.94
2019-04-16T00:25:38.958Z,10.88
2019-04-16T00:26:08.950Z,10.88
2019-04-16T00:26:39.179Z,10.88
2019-04-16T00:27:09.563Z,10.94
2019-04-16T00:27:39.344Z,11
2019-04-16T00:28:11.100Z,11
2019-04-16T00:28:39.128Z,11.06
2019-04-16T00:29:09.394Z,11.06
2019-04-16T00:29:39.680Z,11
2019-04-16T00:30:10.045Z,11
2019-04-16T00:30:39.172Z,11
2019-04-16T00:31:09.237Z,11
2019-04-16T00:31:41.449Z,10.94
2019-04-16T00:32:11.349Z,10.88
2019-04-16T00:32:42.309Z,10.88
2019-04-16T00:33:10.632Z,10.81
2019-04-16T00:33:42.410Z,10.81
2019-04-16T00:34:13.226Z,10.81
2019-04-16T00:34:39.420Z,10.75
2019-04-16T00:35:09.407Z,10.75
2019-04-16T00:35:46.367Z,10.69
2019-04-16T00:36:09.765Z,10.69
2019-04-16T00:36:39.370Z,10.81
2019-04-16T00:37:09.346Z,10.88
2019-04-16T00:37:39.467Z,10.81
2019-04-16T00:38:09.406Z,10.81
2019-04-16T00:38:40.302Z,10.81
2019-04-16T00:39:09.579Z,10.81
2019-04-16T00:39:39.334Z,10.94
2019-04-16T00:40:09.576Z,10.94
2019-04-16T00:40:39.722Z,11
2019-04-16T00:41:09.478Z,11
2019-04-16T00:41:39.580Z,11.12
2019-04-16T00:42:09.317Z,11.12
2019-04-16T00:42:39.523Z,11.25
2019-04-16T00:43:09.522Z,11.31
2019-04-16T00:43:39.549Z,11.31
2019-04-16T00:44:09.762Z,11.31
2019-04-16T00:44:39.554Z,11.31
2019-04-16T00:45:11.127Z,11.31
2019-04-16T00:45:39.717Z,11.31
2019-04-16T00:46:11.432Z,11.31
2019-04-16T00:46:39.815Z,11.31
2019-04-16T00:47:10.464Z,11.31
2019-04-16T00:47:39.699Z,11.38
2019-04-16T00:48:09.758Z,11.38
2019-04-16T00:48:39.633Z,11.38
2019-04-16T00:49:11.831Z,11.38
2019-04-16T00:49:39.888Z,11.44
2019-04-16T00:50:10.350Z,11.44
2019-04-16T00:50:39.741Z,11.44
2019-04-16T00:51:09.850Z,11.44
2019-04-16T00:51:39.918Z,11.44
2019-04-16T00:52:09.702Z,11.44
2019-04-16T00:52:41.464Z,11.44
2019-04-16T00:53:09.914Z,11.44
2019-04-16T00:53:39.750Z,11.5
2019-04-16T00:54:11.115Z,11.5
2019-04-16T00:54:42.334Z,11.5
2019-04-16T00:55:13.550Z,11.5
2019-04-16T00:55:42.273Z,11.5
2019-04-16T00:56:09.836Z,11.56
2019-04-16T00:56:43.470Z,11.56
2019-04-16T00:57:09.911Z,11.56
2019-04-16T00:57:39.940Z,11.56
2019-04-16T00:58:12.589Z,11.63
2019-04-16T00:58:39.960Z,11.63
2019-04-16T00:59:09.835Z,11.56
2019-04-16T00:59:39.916Z,11.56
2019-04-16T01:00:14.033Z,11.63
2019-04-16T01:00:40.097Z,11.69
2019-04-16T01:01:10.058Z,11.69
2019-04-16T01:01:40.150Z,11.69
2019-04-16T01:02:10.926Z,11.69
2019-04-16T01:02:40.169Z,11.69
2019-04-16T01:03:09.932Z,11.69
2019-04-16T01:03:40.083Z,11.69
2019-04-16T01:04:09.923Z,11.69
2019-04-16T01:04:40.153Z,11.69
2019-04-16T01:05:10.223Z,11.63
2019-04-16T01:05:40.202Z,11.56
2019-04-16T01:06:11.243Z,11.5
2019-04-16T01:06:40.613Z,11.5
2019-04-16T01:07:10.116Z,11.5
2019-04-16T01:07:40.254Z,11.5
2019-04-16T01:08:10.506Z,11.5
2019-04-16T01:08:53.485Z,11.44
2019-04-16T01:09:12.229Z,11.38
2019-04-16T01:09:41.593Z,11.38
2019-04-16T01:10:11.948Z,11.31
2019-04-16T01:10:40.248Z,11.25
2019-04-16T01:11:10.291Z,11.19
2019-04-16T01:11:40.128Z,11.19
2019-04-16T01:12:10.131Z,11.25
2019-04-16T01:12:40.295Z,11.25
2019-04-16T01:13:10.245Z,11.25
2019-04-16T01:13:41.731Z,11.31
2019-04-16T01:14:10.173Z,11.31
2019-04-16T01:14:40.387Z,11.25
2019-04-16T01:15:10.230Z,11.25
2019-04-16T01:15:40.353Z,11.25
2019-04-16T01:16:10.540Z,11.12
2019-04-16T01:16:40.379Z,11.12
2019-04-16T01:17:13.762Z,11.12
2019-04-16T01:17:43.267Z,11.19
2019-04-16T01:18:10.272Z,11.25
2019-04-16T01:18:40.432Z,11.25
2019-04-16T01:19:11.115Z,11.25
2019-04-16T01:19:46.129Z,11.25
2019-04-16T01:20:12.595Z,11.19
2019-04-16T01:20:43.073Z,11.19
2019-04-16T01:21:14.822Z,11.12
2019-04-16T01:21:44.307Z,11.06
2019-04-16T01:22:15.665Z,11.06
2019-04-16T01:22:40.617Z,11.12
2019-04-16T01:23:10.779Z,11.06
2019-04-16T01:23:40.634Z,11.06
2019-04-16T01:24:10.473Z,11.12
2019-04-16T01:24:40.550Z,11.12
2019-04-16T01:25:10.971Z,11.06
2019-04-16T01:25:40.678Z,10.94
2019-04-16T01:26:10.586Z,10.94
2019-04-16T01:26:41.250Z,10.94
2019-04-16T01:27:11.241Z,10.94
2019-04-16T01:27:40.700Z,10.94
2019-04-16T01:28:10.733Z,10.94
2019-04-16T01:28:40.749Z,10.94
2019-04-16T01:29:10.576Z,10.94
2019-04-16T01:29:40.652Z,10.94
2019-04-16T01:30:10.795Z,11
2019-04-16T01:30:41.725Z,11
2019-04-16T01:31:13.072Z,11.06
2019-04-16T01:31:40.844Z,11.12
2019-04-16T01:32:12.017Z,11.06
2019-04-16T01:32:42.641Z,11.06
2019-04-16T01:33:14.204Z,11.12
2019-04-16T01:33:43.371Z,11.12
2019-04-16T01:34:10.963Z,11.19
2019-04-16T01:34:42.578Z,11.19
2019-04-16T01:35:10.987Z,11.19
2019-04-16T01:35:41.009Z,11.19
2019-04-16T01:36:10.965Z,11.12
2019-04-16T01:36:40.843Z,11.12
2019-04-16T01:37:10.890Z,11.12
2019-04-16T01:37:40.917Z,11.12
2019-04-16T01:38:13.450Z,11.12
2019-04-16T01:38:41.159Z,11.12
2019-04-16T01:39:17.059Z,11.12
2019-04-16T01:39:41.216Z,11.12
2019-04-16T01:40:11.373Z,11.12
2019-04-16T01:40:40.865Z,11.12
2019-04-16T01:41:10.831Z,11.25
2019-04-16T01:41:41.080Z,11.25
2019-04-16T01:42:14.121Z,11.19
2019-04-16T01:42:41.059Z,11.12
2019-04-16T01:43:10.925Z,11.12
2019-04-16T01:43:41.213Z,11.12
2019-04-16T01:44:11.111Z,11.19
2019-04-16T01:44:40.940Z,11.19
2019-04-16T01:45:11.315Z,11.12
2019-04-16T01:45:44.707Z,11.06
2019-04-16T01:46:11.175Z,11.06
2019-04-16T01:46:41.210Z,11
2019-04-16T01:47:11.104Z,11
2019-04-16T01:47:41.533Z,11.06
2019-04-16T01:48:11.156Z,11.06
2019-04-16T01:48:41.268Z,11.06
2019-04-16T01:49:11.555Z,11.12
2019-04-16T01:49:42.045Z,11.19
2019-04-16T01:50:13.676Z,11.19
2019-04-16T01:50:43.692Z,11.25
2019-04-16T01:51:12.553Z,11.19
2019-04-16T01:51:41.440Z,11.25
2019-04-16T01:52:11.244Z,11.25
2019-04-16T01:52:41.431Z,11.19
2019-04-16T01:53:11.681Z,11.19
2019-04-16T01:53:41.318Z,11.25
2019-04-16T01:54:11.311Z,11.25
2019-04-16T01:54:41.137Z,11.25
2019-04-16T01:55:13.061Z,11.31
2019-04-16T01:55:42.684Z,11.31
2019-04-16T01:56:11.509Z,11.31
2019-04-16T01:56:41.410Z,11.31
2019-04-16T01:57:11.376Z,11.31
2019-04-16T01:57:41.351Z,11.38
2019-04-16T01:58:11.413Z,11.38
2019-04-16T01:58:41.186Z,11.38
2019-04-16T01:59:13.509Z,11.38
2019-04-16T01:59:41.388Z,11.38
2019-04-16T02:00:11.378Z,11.38
2019-04-16T02:00:41.314Z,11.38
2019-04-16T02:01:12.348Z,11.38
2019-04-16T02:01:43.349Z,11.38
2019-04-16T02:02:14.497Z,11.38
2019-04-16T02:02:46.264Z,11.31
2019-04-16T02:03:17.485Z,11.31
2019-04-16T02:03:41.435Z,11.38
2019-04-16T02:04:11.696Z,11.38
2019-04-16T02:04:41.518Z,11.38
2019-04-16T02:05:11.909Z,11.31
2019-04-16T02:05:41.344Z,11.31
2019-04-16T02:06:11.330Z,11.38
2019-04-16T02:06:41.469Z,11.38
2019-04-16T02:07:11.825Z,11.38
2019-04-16T02:07:41.437Z,11.38
2019-04-16T02:08:11.477Z,11.44
2019-04-16T02:08:41.897Z,11.44
2019-04-16T02:09:21.579Z,11.44
2019-04-16T02:09:41.700Z,11.44
2019-04-16T02:10:11.828Z,11.44
2019-04-16T02:10:41.631Z,11.44
2019-04-16T02:11:11.674Z,11.44
2019-04-16T02:11:42.137Z,11.44
2019-04-16T02:12:13.195Z,11.44
2019-04-16T02:12:43.828Z,11.44
2019-04-16T02:13:14.487Z,11.38
2019-04-16T02:13:45.733Z,11.38
2019-04-16T02:14:11.671Z,11.38
2019-04-16T02:14:41.864Z,11.38
2019-04-16T02:15:11.711Z,11.31
2019-04-16T02:15:42.313Z,11.31
2019-04-16T02:16:12.619Z,11.38
2019-04-16T02:16:42.155Z,11.38
2019-04-16T02:17:11.662Z,11.38
2019-04-16T02:17:41.676Z,11.38
2019-04-16T02:18:11.801Z,11.31
2019-04-16T02:18:41.741Z,11.31
2019-04-16T02:19:11.695Z,11.31
2019-04-16T02:19:41.835Z,11.31
2019-04-16T02:20:13.497Z,11.31
2019-04-16T02:20:41.874Z,11.25
2019-04-16T02:21:11.759Z,11.31
2019-04-16T02:21:42.111Z,11.31
2019-04-16T02:22:13.587Z,11.38
2019-04-16T02:22:42.205Z,11.38
2019-04-16T02:23:13.426Z,11.44
2019-04-16T02:23:45.267Z,11.44
2019-04-16T02:24:11.729Z,11.38
2019-04-16T02:24:42.153Z,11.38
2019-04-16T02:25:12.011Z,11.38
2019-04-16T02:25:42.023Z,11.38
2019-04-16T02:26:12.021Z,11.31
2019-04-16T02:26:41.983Z,11.31
2019-04-16T02:27:14.285Z,11.25
2019-04-16T02:27:44.916Z,11.25
2019-04-16T02:28:12.036Z,11.25
2019-04-16T02:28:42.267Z,11.19
2019-04-16T02:29:12.149Z,11.19
2019-04-16T02:29:42.047Z,11.19
2019-04-16T02:30:12.242Z,11.25
2019-04-16T02:30:42.057Z,11.25
2019-04-16T02:31:16.264Z,11.25
2019-04-16T02:31:41.974Z,11.25
2019-04-16T02:32:12.048Z,11.19
2019-04-16T02:32:42.226Z,11.19
2019-04-16T02:33:12.870Z,11.19
2019-04-16T02:33:42.283Z,11.19
2019-04-16T02:34:12.167Z,11.12
2019-04-16T02:34:42.376Z,11.19
2019-04-16T02:35:12.300Z,11.19
2019-04-16T02:35:42.446Z,11.12
2019-04-16T02:36:12.189Z,11.12
2019-04-16T02:36:42.131Z,11.12
2019-04-16T02:37:13.056Z,11.06
2019-04-16T02:37:42.352Z,11
2019-04-16T02:38:13.532Z,11
2019-04-16T02:38:47.507Z,11
2019-04-16T02:39:12.200Z,10.94
2019-04-16T02:39:48.064Z,10.94
2019-04-16T02:40:16.537Z,10.94
2019-04-16T02:40:43.631Z,10.94
2019-04-16T02:41:13.268Z,10.94
2019-04-16T02:41:42.393Z,10.94
2019-04-16T02:42:12.354Z,10.88
2019-04-16T02:42:42.459Z,10.88
2019-04-16T02:43:12.458Z,10.88
2019-04-16T02:43:42.380Z,10.88
2019-04-16T02:44:15.859Z,10.88
2019-04-16T02:44:48.418Z,10.88
2019-04-16T02:45:12.446Z,10.94
2019-04-16T02:45:42.392Z,10.88
2019-04-16T02:46:12.508Z,10.88
2019-04-16T02:46:42.711Z,10.94
2019-04-16T02:47:12.583Z,10.94
2019-04-16T02:47:42.677Z,10.88
2019-04-16T02:48:16.987Z,10.88
2019-04-16T02:48:49.903Z,10.81
2019-04-16T02:49:12.597Z,10.81
2019-04-16T02:49:45.398Z,10.81
2019-04-16T02:50:12.600Z,10.75
2019-04-16T02:50:43.032Z,10.75
2019-04-16T02:51:12.568Z,10.75
2019-04-16T02:51:42.535Z,10.81
2019-04-16T02:52:17.277Z,10.81
2019-04-16T02:52:42.749Z,10.81
2019-04-16T02:53:12.892Z,10.81
2019-04-16T02:53:42.675Z,10.81
2019-04-16T02:54:12.967Z,10.75
2019-04-16T02:54:42.971Z,10.75
2019-04-16T02:55:12.691Z,10.75
2019-04-16T02:55:43.835Z,10.69
2019-04-16T02:56:16.945Z,10.63
2019-04-16T02:56:42.837Z,10.63
2019-04-16T02:57:12.936Z,10.63
2019-04-16T02:57:42.759Z,10.69
2019-04-16T02:58:13.923Z,10.75
2019-04-16T02:58:42.908Z,10.69
2019-04-16T02:59:13.614Z,10.69
2019-04-16T02:59:46.259Z,10.63
2019-04-16T03:00:17.528Z,10.56
2019-04-16T03:00:43.209Z,10.5
2019-04-16T03:01:12.972Z,10.5
2019-04-16T03:01:43.461Z,10.5
2019-04-16T03:02:12.974Z,10.44
2019-04-16T03:02:43.072Z,10.38
2019-04-16T03:03:12.869Z,10.31
2019-04-16T03:03:43.052Z,10.25
2019-04-16T03:04:12.956Z,10.19
2019-04-16T03:04:43.005Z,10.25
2019-04-16T03:05:13.212Z,10.25
2019-04-16T03:05:44.415Z,10.13
2019-04-16T03:06:13.091Z,10.06
2019-04-16T03:06:43.092Z,10.06
2019-04-16T03:07:13.066Z,10
2019-04-16T03:07:43.115Z,9.94
2019-04-16T03:08:13.166Z,10
2019-04-16T03:08:43.085Z,10.06
2019-04-16T03:09:14.678Z,10.06
2019-04-16T03:09:43.187Z,10.06
2019-04-16T03:10:13.848Z,10.13
2019-04-16T03:10:44.585Z,10.13
2019-04-16T03:11:13.713Z,10.19
2019-04-16T03:11:45.527Z,10.19
2019-04-16T03:12:17.527Z,10.25
2019-04-16T03:12:45.534Z,10.31
2019-04-16T03:13:14.828Z,10.31
2019-04-16T03:13:43.413Z,10.31
2019-04-16T03:14:13.270Z,10.31
2019-04-16T03:14:43.538Z,10.31
2019-04-16T03:15:13.368Z,10.31
2019-04-16T03:15:43.300Z,10.19
2019-04-16T03:16:13.481Z,10.19
2019-04-16T03:16:46.018Z,10.19
2019-04-16T03:17:13.282Z,10.06
2019-04-16T03:17:43.734Z,9.94
2019-04-16T03:18:14.839Z,9.94
2019-04-16T03:18:46.743Z,9.94
2019-04-16T03:19:13.601Z,9.88
2019-04-16T03:19:43.452Z,9.75
2019-04-16T03:20:13.412Z,9.75
2019-04-16T03:20:43.582Z,9.81
2019-04-16T03:21:13.417Z,9.81
2019-04-16T03:21:43.643Z,9.81
2019-04-16T03:22:13.713Z,9.88
2019-04-16T03:22:43.644Z,9.88
2019-04-16T03:23:14.429Z,9.88
2019-04-16T03:23:43.732Z,9.88
2019-04-16T03:24:13.556Z,9.88
2019-04-16T03:24:43.641Z,9.88
2019-04-16T03:25:14.224Z,9.94
2019-04-16T03:25:44.236Z,9.94
2019-04-16T03:26:17.463Z,9.94
2019-04-16T03:26:44.291Z,10
2019-04-16T03:27:13.573Z,10
2019-04-16T03:27:43.873Z,10.06
2019-04-16T03:28:13.563Z,10
2019-04-16T03:28:43.576Z,10.06
2019-04-16T03:29:13.616Z,10.06
2019-04-16T03:29:43.761Z,10
2019-04-16T03:30:15.726Z,10
2019-04-16T03:30:43.717Z,9.94
2019-04-16T03:31:19.264Z,9.88
2019-04-16T03:31:43.892Z,9.88
2019-04-16T03:32:14.926Z,9.81
2019-04-16T03:32:43.845Z,9.75
2019-04-16T03:33:14.751Z,9.75
2019-04-16T03:33:50.114Z,9.75
2019-04-16T03:34:13.840Z,9.81
2019-04-16T03:34:45.114Z,9.81
2019-04-16T03:35:13.742Z,9.94
2019-04-16T03:35:43.782Z,9.88
2019-04-16T03:36:13.880Z,9.94
2019-04-16T03:36:43.733Z,9.81
2019-04-16T03:37:13.953Z,9.81
2019-04-16T03:37:46.560Z,9.88
2019-04-16T03:38:13.873Z,9.94
2019-04-16T03:38:43.766Z,10
2019-04-16T03:39:14.258Z,10.06
2019-04-16T03:39:44.861Z,10.06
2019-04-16T03:40:16.818Z,10.06
2019-04-16T03:40:43.864Z,10.13
2019-04-16T03:41:16.910Z,10.13
2019-04-16T03:41:44.085Z,10.13
2019-04-16T03:42:14.154Z,10.13
2019-04-16T03:42:43.916Z,10.13
2019-04-16T03:43:14.570Z,10.19
2019-04-16T03:43:44.354Z,10.13
2019-04-16T03:44:14.249Z,10.06
2019-04-16T03:44:44.313Z,10.13
2019-04-16T03:45:14.209Z,10.13
2019-04-16T03:45:46.345Z,10.13
2019-04-16T03:46:14.578Z,10.06
2019-04-16T03:46:46.710Z,10.06
2019-04-16T03:47:15.602Z,10.06
2019-04-16T03:47:44.237Z,10
2019-04-16T03:48:14.298Z,10
2019-04-16T03:48:44.416Z,10
2019-04-16T03:49:14.255Z,10
2019-04-16T03:49:44.319Z,10
2019-04-16T03:50:14.211Z,9.88
2019-04-16T03:50:45.369Z,9.81
2019-04-16T03:51:15.413Z,9.81
2019-04-16T03:51:44.379Z,9.81
2019-04-16T03:52:14.208Z,9.75
2019-04-16T03:52:45.696Z,9.75
2019-04-16T03:53:17.428Z,9.69
2019-04-16T03:53:46.419Z,9.75
2019-04-16T03:54:14.394Z,9.69
2019-04-16T03:54:45.683Z,9.69
2019-04-16T03:55:14.412Z,9.63
2019-04-16T03:55:44.284Z,9.56
2019-04-16T03:56:14.503Z,9.5
2019-04-16T03:56:44.532Z,9.56
2019-04-16T03:57:14.876Z,9.56
2019-04-16T03:57:44.345Z,9.5
2019-04-16T03:58:16.619Z,9.5
2019-04-16T03:58:46.188Z,9.56
2019-04-16T03:59:14.559Z,9.56
2019-04-16T03:59:44.374Z,9.5
2019-04-16T04:00:14.412Z,9.5
2019-04-16T04:00:45.051Z,9.5
2019-04-16T04:01:15.354Z,9.5
2019-04-16T04:01:46.009Z,9.5
2019-04-16T04:02:21.699Z,9.44
2019-04-16T04:02:44.995Z,9.38
2019-04-16T04:03:14.714Z,9.38
2019-04-16T04:03:44.474Z,9.38
2019-04-16T04:04:14.938Z,9.38
2019-04-16T04:04:44.488Z,9.31
2019-04-16T04:05:14.558Z,9.31
2019-04-16T04:05:44.579Z,9.31
2019-04-16T04:06:17.380Z,9.31
2019-04-16T04:06:44.651Z,9.38
2019-04-16T04:07:14.783Z,9.38
2019-04-16T04:07:45.066Z,9.31
2019-04-16T04:08:17.337Z,9.31
2019-04-16T04:08:47.851Z,9.31
2019-04-16T04:09:14.680Z,9.31
2019-04-16T04:09:44.799Z,9.31
2019-04-16T04:10:28.955Z,9.31
2019-04-16T04:10:44.738Z,9.25
2019-04-16T04:11:14.722Z,9.25
2019-04-16T04:11:44.749Z,9.25
2019-04-16T04:12:14.676Z,9.19
2019-04-16T04:12:45.601Z,9.19
2019-04-16T04:13:18.326Z,9.19
2019-04-16T04:13:49.644Z,9.19
2019-04-16T04:14:14.966Z,9.19
2019-04-16T04:14:44.614Z,9.19
2019-04-16T04:15:14.739Z,9.13
2019-04-16T04:15:46.038Z,9.13
2019-04-16T04:16:14.795Z,9.13
2019-04-16T04:16:44.974Z,9.13
2019-04-16T04:17:14.894Z,9.13
2019-04-16T04:17:44.713Z,9.06
2019-04-16T04:18:15.075Z,9.06
2019-04-16T04:18:44.952Z,9.06
2019-04-16T04:19:16.654Z,9
2019-04-16T04:19:46.118Z,9.06
2019-04-16T04:20:18.050Z,9
2019-04-16T04:20:49.396Z,9
2019-04-16T04:21:15.432Z,9
2019-04-16T04:21:45.026Z,8.94
2019-04-16T04:22:15.008Z,8.94
2019-04-16T04:22:45.000Z,8.94
2019-04-16T04:23:17.238Z,8.88
2019-04-16T04:23:45.160Z,8.88
2019-04-16T04:24:15.231Z,8.88
2019-04-16T04:24:45.163Z,8.88
2019-04-16T04:25:15.885Z,8.88
2019-04-16T04:25:45.172Z,8.88
2019-04-16T04:26:15.174Z,8.94
2019-04-16T04:26:48.362Z,8.88
2019-04-16T04:27:18.711Z,8.88
2019-04-16T04:27:46.607Z,8.88
2019-04-16T04:28:18.419Z,8.88
2019-04-16T04:28:45.294Z,8.88
2019-04-16T04:29:15.553Z,8.88
2019-04-16T04:29:46.381Z,8.88
2019-04-16T04:30:15.356Z,8.88
2019-04-16T04:30:48.860Z,8.81
2019-04-16T04:31:15.303Z,8.81
2019-04-16T04:31:45.297Z,8.81
2019-04-16T04:32:15.420Z,8.88
2019-04-16T04:32:47.481Z,8.81
2019-04-16T04:33:15.323Z,8.88
2019-04-16T04:33:45.396Z,8.81
2019-04-16T04:34:17.101Z,8.88
2019-04-16T04:34:48.310Z,8.81
2019-04-16T04:35:19.924Z,8.81
2019-04-16T04:35:45.434Z,8.81
2019-04-16T04:36:18.852Z,8.81
2019-04-16T04:36:46.221Z,8.81
2019-04-16T04:37:15.663Z,8.81
2019-04-16T04:37:45.486Z,8.81
2019-04-16T04:38:15.394Z,8.81
2019-04-16T04:38:45.637Z,8.81
2019-04-16T04:39:15.997Z,8.81
2019-04-16T04:39:45.617Z,8.81
2019-04-16T04:40:17.712Z,8.81
2019-04-16T04:40:50.251Z,8.81
2019-04-16T04:41:15.562Z,8.81
2019-04-16T04:41:46.006Z,8.81
2019-04-16T04:42:18.610Z,8.81
2019-04-16T04:42:45.517Z,8.81
2019-04-16T04:43:15.851Z,8.88
2019-04-16T04:43:48.275Z,8.88
2019-04-16T04:44:17.575Z,8.88
2019-04-16T04:44:47.026Z,8.81
2019-04-16T04:45:15.727Z,8.81
2019-04-16T04:45:45.643Z,8.81
2019-04-16T04:46:15.815Z,8.81
2019-04-16T04:46:46.055Z,8.75
2019-04-16T04:47:19.218Z,8.75
2019-04-16T04:47:51.556Z,8.75
2019-04-16T04:48:16.002Z,8.81
2019-04-16T04:48:45.800Z,8.81
2019-04-16T04:49:15.830Z,8.81
2019-04-16T04:49:45.822Z,8.88
2019-04-16T04:50:15.902Z,8.94
2019-04-16T04:50:45.950Z,8.94
2019-04-16T04:51:15.876Z,8.88
2019-04-16T04:51:45.829Z,8.81
2019-04-16T04:52:15.807Z,8.81
2019-04-16T04:52:46.792Z,8.88
2019-04-16T04:53:19.157Z,8.81
2019-04-16T04:53:47.443Z,8.75
2019-04-16T04:54:15.900Z,8.75
2019-04-16T04:54:46.079Z,8.81
2019-04-16T04:55:16.071Z,8.81
2019-04-16T04:55:46.214Z,8.81
2019-04-16T04:56:19.081Z,8.81
2019-04-16T04:56:46.091Z,8.75
2019-04-16T04:57:16.990Z,8.75
2019-04-16T04:57:46.164Z,8.81
2019-04-16T04:58:16.021Z,8.81
2019-04-16T04:58:46.265Z,8.75
2019-04-16T04:59:16.127Z,8.75
2019-04-16T04:59:46.246Z,8.81
2019-04-16T05:00:16.264Z,8.88
2019-04-16T05:00:46.074Z,8.88
2019-04-16T05:01:18.085Z,8.88
2019-04-16T05:01:46.235Z,8.88
2019-04-16T05:02:16.180Z,8.88
2019-04-16T05:02:46.273Z,8.88
2019-04-16T05:03:16.829Z,8.75
2019-04-16T05:03:47.285Z,8.75
2019-04-16T05:04:20.318Z,8.69
2019-04-16T05:04:49.562Z,8.69
2019-04-16T05:05:16.105Z,8.75
2019-04-16T05:05:46.271Z,8.75
2019-04-16T05:06:16.147Z,8.69
2019-04-16T05:06:46.271Z,8.69
2019-04-16T05:07:16.448Z,8.63
2019-04-16T05:07:46.300Z,8.63
2019-04-16T05:08:16.117Z,8.56
2019-04-16T05:08:48.778Z,8.56
2019-04-16T05:09:16.340Z,8.5
2019-04-16T05:09:46.277Z,8.56
2019-04-16T05:10:16.484Z,8.5
2019-04-16T05:10:58.261Z,8.5
2019-04-16T05:11:17.033Z,8.5
2019-04-16T05:11:48.291Z,8.5
2019-04-16T05:12:21.244Z,8.75
2019-04-16T05:12:46.269Z,8.75
2019-04-16T05:13:16.341Z,8.81
2019-04-16T05:13:46.332Z,8.88
2019-04-16T05:14:16.955Z,8.88
2019-04-16T05:14:46.482Z,8.88
2019-04-16T05:15:16.736Z,8.88
2019-04-16T05:15:46.866Z,8.88
2019-04-16T05:16:16.501Z,8.88
2019-04-16T05:16:46.549Z,8.88
2019-04-16T05:17:16.589Z,8.88
2019-04-16T05:17:46.467Z,8.88
2019-04-16T05:18:17.344Z,8.94
2019-04-16T05:18:46.557Z,8.94
2019-04-16T05:19:16.420Z,8.94
2019-04-16T05:19:46.700Z,8.94
2019-04-16T05:20:16.832Z,8.94
2019-04-16T05:20:46.930Z,8.94
2019-04-16T05:21:18.644Z,8.94
2019-04-16T05:21:50.006Z,8.88
2019-04-16T05:22:20.539Z,8.88
2019-04-16T05:22:46.742Z,8.88
2019-04-16T05:23:16.938Z,8.88
2019-04-16T05:23:46.933Z,8.88
2019-04-16T05:24:16.676Z,8.88
2019-04-16T05:24:46.816Z,8.94
2019-04-16T05:25:17.129Z,8.94
2019-04-16T05:25:48.061Z,9
2019-04-16T05:26:16.998Z,9
2019-04-16T05:26:49.205Z,9.06
2019-04-16T05:27:16.792Z,9.06
2019-04-16T05:27:46.815Z,9.06
2019-04-16T05:28:16.861Z,9.06
2019-04-16T05:28:46.913Z,9.13
2019-04-16T05:29:18.757Z,9.19
2019-04-16T05:29:48.797Z,9.19
2019-04-16T05:30:19.815Z,9.25
2019-04-16T05:30:51.750Z,9.25
2019-04-16T05:31:16.984Z,9.31
2019-04-16T05:31:46.783Z,9.31
2019-04-16T05:32:16.720Z,9.38
2019-04-16T05:32:46.964Z,9.44
2019-04-16T05:33:19.458Z,9.5
2019-04-16T05:33:46.964Z,9.5
2019-04-16T05:34:17.850Z,9.5
2019-04-16T05:34:46.990Z,9.56
2019-04-16T05:35:17.581Z,9.56
2019-04-16T05:35:46.847Z,9.56
2019-04-16T05:36:17.043Z,9.63
2019-04-16T05:36:49.573Z,9.69
2019-04-16T05:37:19.775Z,9.75
2019-04-16T05:37:48.455Z,9.81
2019-04-16T05:38:16.870Z,9.88
2019-04-16T05:38:46.965Z,9.88
2019-04-16T05:39:16.838Z,9.94
2019-04-16T05:39:46.941Z,10
2019-04-16T05:40:20.645Z,10
2019-04-16T05:40:49.546Z,10.06
2019-04-16T05:41:20.967Z,10.06
2019-04-16T05:41:46.969Z,10.06
2019-04-16T05:42:17.248Z,10.06
2019-04-16T05:42:47.310Z,10.13
2019-04-16T05:43:16.882Z,10.13
2019-04-16T05:43:47.012Z,10.13
2019-04-16T05:44:20.305Z,10.13
2019-04-16T05:44:47.127Z,10.13
2019-04-16T05:45:17.210Z,10.19
2019-04-16T05:45:47.016Z,10.19
2019-04-16T05:46:17.479Z,10.25
2019-04-16T05:46:47.195Z,10.38
2019-04-16T05:47:18.121Z,10.38
2019-04-16T05:47:51.031Z,10.44
2019-04-16T05:48:18.493Z,10.44
2019-04-16T05:48:48.520Z,10.44
2019-04-16T05:49:17.211Z,10.44
2019-04-16T05:49:47.192Z,10.44
2019-04-16T05:50:18.729Z,10.5
2019-04-16T05:50:47.418Z,10.5
2019-04-16T05:51:17.265Z,10.56
2019-04-16T05:51:48.415Z,10.56
2019-04-16T05:52:17.399Z,10.56
2019-04-16T05:52:47.686Z,10.5
2019-04-16T05:53:17.493Z,10.56
2019-04-16T05:53:47.647Z,10.56
2019-04-16T05:54:17.411Z,10.56
2019-04-16T05:54:47.690Z,10.56
2019-04-16T05:55:20.748Z,10.63
2019-04-16T05:55:49.879Z,10.63
2019-04-16T05:56:20.153Z,10.69
2019-04-16T05:56:47.761Z,10.75
2019-04-16T05:57:17.697Z,10.75
2019-04-16T05:57:47.687Z,10.81
2019-04-16T05:58:17.634Z,10.81
2019-04-16T05:58:49.535Z,10.81
2019-04-16T05:59:17.844Z,10.75
2019-04-16T05:59:49.970Z,10.75
2019-04-16T06:00:17.725Z,10.81
2019-04-16T06:00:47.582Z,10.81
2019-04-16T06:01:17.934Z,10.88
2019-04-16T06:01:47.619Z,10.88
2019-04-16T06:02:20.009Z,10.94
2019-04-16T06:02:50.416Z,10.94
2019-04-16T06:03:20.536Z,10.94
2019-04-16T06:03:52.744Z,10.94
2019-04-16T06:04:17.828Z,11.06
2019-04-16T06:04:47.767Z,11.12
2019-04-16T06:05:17.780Z,11.19
2019-04-16T06:05:48.199Z,11.19
2019-04-16T06:06:17.753Z,11.19
2019-04-16T06:06:47.752Z,11.19
2019-04-16T06:07:17.751Z,11.25
2019-04-16T06:07:47.705Z,11.31
2019-04-16T06:08:17.906Z,11.31
2019-04-16T06:08:47.867Z,11.38
2019-04-16T06:09:18.676Z,11.44
2019-04-16T06:09:48.224Z,11.5
2019-04-16T06:10:19.151Z,11.56
2019-04-16T06:10:51.182Z,11.63
2019-04-16T06:11:28.013Z,11.69
2019-04-16T06:11:47.966Z,11.75
2019-04-16T06:12:17.906Z,11.81
2019-04-16T06:12:47.954Z,11.81
2019-04-16T06:13:19.212Z,11.81
2019-04-16T06:13:47.869Z,11.75
2019-04-16T06:14:19.131Z,11.69
2019-04-16T06:14:53.906Z,11.69
2019-04-16T06:15:21.062Z,11.75
2019-04-16T06:15:50.182Z,11.75
2019-04-16T06:16:18.071Z,11.75
2019-04-16T06:16:48.511Z,11.88
2019-04-16T06:17:18.057Z,11.94
2019-04-16T06:17:48.174Z,11.88
2019-04-16T06:18:21.095Z,11.88
2019-04-16T06:18:47.912Z,11.88
2019-04-16T06:19:18.122Z,11.94
2019-04-16T06:19:47.989Z,11.94
2019-04-16T06:20:20.463Z,11.94
2019-04-16T06:20:49.287Z,11.94
2019-04-16T06:21:18.291Z,11.94
2019-04-16T06:21:50.315Z,11.94
2019-04-16T06:22:19.410Z,11.94
2019-04-16T06:22:48.378Z,11.88
2019-04-16T06:23:18.240Z,11.81
2019-04-16T06:23:48.443Z,11.81
2019-04-16T06:24:18.578Z,11.81
2019-04-16T06:24:48.187Z,11.75
2019-04-16T06:25:20.373Z,11.75
2019-04-16T06:25:48.346Z,11.75
2019-04-16T06:26:18.124Z,11.81
2019-04-16T06:26:48.134Z,11.81
2019-04-16T06:27:18.223Z,11.88
2019-04-16T06:27:48.349Z,11.88
2019-04-16T06:28:18.735Z,11.88
2019-04-16T06:28:54.915Z,11.81
2019-04-16T06:29:19.186Z,11.81
2019-04-16T06:29:48.461Z,11.81
2019-04-16T06:30:18.554Z,11.81
2019-04-16T06:30:48.631Z,11.88
2019-04-16T06:31:18.443Z,11.88
2019-04-16T06:31:48.384Z,11.88
2019-04-16T06:32:18.434Z,11.88
2019-04-16T06:32:50.245Z,11.88